Terminal Aerodrome Forecast
Issued by NWS Bismarck, ND

Home | Current Version | Previous Version | Text Only | Print | Product List | Glossary Off
Versions: 1 2 3 4 5 6 7 8 9 10 11 12 13 14 15 16 17 18 19

000
FTUS43 KBIS 231100 RRA
TAFBIS
TAF
KBIS 231141Z 2312/2412 27015G22KT P6SM SCT020 BKN035
     FM231400 30022G32KT P6SM -SN BKN025
     FM231800 31026G35KT 6SM -SN BLSN OVC015
     FM240200 33017KT P6SM OVC025=

USA.gov is the U.S. government's official web portal to all federal, state and local government web resources and services.